sensor_id;sensor_type;location;lat;lon;timestamp;pressure;altitude;pressure_sealevel;temperature;humidity
28448;BME280;15675;52.870;-1.416;2023-05-24T00:00:39;102084.13;;;12.81;100.00
28448;BME280;15675;52.870;-1.416;2023-05-24T00:03:06;102069.16;;;12.68;100.00
28448;BME280;15675;52.870;-1.416;2023-05-24T00:05:32;102083.31;;;12.85;100.00
28448;BME280;15675;52.870;-1.416;2023-05-24T00:08:02;102077.66;;;12.56;100.00
28448;BME280;15675;52.870;-1.416;2023-05-24T00:10:28;102064.75;;;12.65;100.00
28448;BME280;15675;52.870;-1.416;2023-05-24T00:12:54;102070.31;;;12.33;100.00
28448;BME280;15675;52.870;-1.416;2023-05-24T00:15:20;102066.13;;;12.43;100.00
28448;BME280;15675;52.870;-1.416;2023-05-24T00:17:46;102059.06;;;12.36;100.00
28448;BME280;15675;52.870;-1.416;2023-05-24T00:20:12;102057.75;;;12.11;100.00
28448;BME280;15675;52.870;-1.416;2023-05-24T00:22:40;102065.22;;;11.94;100.00
28448;BME280;15675;52.870;-1.416;2023-05-24T00:25:07;102052.63;;;11.71;100.00
28448;BME280;15675;52.870;-1.416;2023-05-24T00:27:33;102042.19;;;11.69;100.00
28448;BME280;15675;52.870;-1.416;2023-05-24T00:30:02;102049.97;;;11.69;100.00
28448;BME280;15675;52.870;-1.416;2023-05-24T00:32:29;102051.28;;;11.91;100.00
28448;BME280;15675;52.870;-1.416;2023-05-24T00:34:54;102064.94;;;12.25;100.00
28448;BME280;15675;52.870;-1.416;2023-05-24T00:37:20;102061.53;;;12.28;100.00
28448;BME280;15675;52.870;-1.416;2023-05-24T00:39:46;102058.78;;;12.20;100.00
28448;BME280;15675;52.870;-1.416;2023-05-24T00:42:12;102061.31;;;12.16;100.00
28448;BME280;15675;52.870;-1.416;2023-05-24T00:44:38;102052.41;;;12.03;100.00
28448;BME280;15675;52.870;-1.416;2023-05-24T00:47:04;102061.72;;;11.93;100.00
28448;BME280;15675;52.870;-1.416;2023-05-24T00:49:30;102059.59;;;11.73;100.00
28448;BME280;15675;52.870;-1.416;2023-05-24T00:51:57;102063.59;;;11.97;100.00
28448;BME280;15675;52.870;-1.416;2023-05-24T00:54:24;102061.06;;;12.02;100.00
28448;BME280;15675;52.870;-1.416;2023-05-24T00:56:52;102061.44;;;11.78;100.00
28448;BME280;15675;52.870;-1.416;2023-05-24T00:59:18;102057.75;;;11.68;100.00
28448;BME280;15675;52.870;-1.416;2023-05-24T01:01:44;102052.31;;;11.57;100.00
28448;BME280;15675;52.870;-1.416;2023-05-24T01:04:12;102050.22;;;11.39;100.00
28448;BME280;15675;52.870;-1.416;2023-05-24T01:06:57;102048.97;;;11.63;100.00
28448;BME280;15675;52.870;-1.416;2023-05-24T01:09:40;102054.53;;;11.38;100.00
28448;BME280;15675;52.870;-1.416;2023-05-24T01:12:18;102047.00;;;11.51;100.00
28448;BME280;15675;52.870;-1.416;2023-05-24T01:15:16;102048.09;;;11.62;100.00
28448;BME280;15675;52.870;-1.416;2023-05-24T01:17:50;102039.53;;;11.66;100.00
28448;BME280;15675;52.870;-1.416;2023-05-24T01:20:18;102044.78;;;11.69;100.00
28448;BME280;15675;52.870;-1.416;2023-05-24T01:23:04;102049.31;;;11.80;100.00
28448;BME280;15675;52.870;-1.416;2023-05-24T01:25:51;102048.53;;;11.84;100.00
28448;BME280;15675;52.870;-1.416;2023-05-24T01:28:18;102047.75;;;11.88;100.00
28448;BME280;15675;52.870;-1.416;2023-05-24T01:30:45;102056.53;;;11.93;100.00
28448;BME280;15675;52.870;-1.416;2023-05-24T01:33:12;102055.19;;;11.69;100.00
28448;BME280;15675;52.870;-1.416;2023-05-24T01:35:38;102063.75;;;11.64;100.00
28448;BME280;15675;52.870;-1.416;2023-05-24T01:38:07;102058.16;;;11.88;100.00
28448;BME280;15675;52.870;-1.416;2023-05-24T01:40:33;102052.59;;;11.69;100.00
28448;BME280;15675;52.870;-1.416;2023-05-24T01:43:17;102048.16;;;11.65;100.00
28448;BME280;15675;52.870;-1.416;2023-05-24T01:48:58;102042.38;;;11.79;100.00
28448;BME280;15675;52.870;-1.416;2023-05-24T01:51:36;102045.03;;;11.82;100.00
28448;BME280;15675;52.870;-1.416;2023-05-24T01:54:05;102044.31;;;11.89;100.00
28448;BME280;15675;52.870;-1.416;2023-05-24T01:56:31;102048.34;;;12.17;100.00
28448;BME280;15675;52.870;-1.416;2023-05-24T01:58:59;102043.50;;;11.91;100.00
28448;BME280;15675;52.870;-1.416;2023-05-24T02:01:27;102052.50;;;12.07;100.00
28448;BME280;15675;52.870;-1.416;2023-05-24T02:03:54;102052.50;;;12.07;100.00
28448;BME280;15675;52.870;-1.416;2023-05-24T02:06:20;102054.63;;;11.42;100.00
28448;BME280;15675;52.870;-1.416;2023-05-24T02:08:45;102054.34;;;11.29;100.00
28448;BME280;15675;52.870;-1.416;2023-05-24T02:11:11;102055.00;;;11.60;100.00
28448;BME280;15675;52.870;-1.416;2023-05-24T02:13:37;102056.59;;;11.95;100.00
28448;BME280;15675;52.870;-1.416;2023-05-24T02:16:04;102054.06;;;11.99;100.00
28448;BME280;15675;52.870;-1.416;2023-05-24T02:18:29;102059.69;;;11.78;100.00
28448;BME280;15675;52.870;-1.416;2023-05-24T02:21:00;102060.63;;;11.82;100.00
28448;BME280;15675;52.870;-1.416;2023-05-24T02:23:26;102060.44;;;11.72;100.00
28448;BME280;15675;52.870;-1.416;2023-05-24T02:25:52;102069.78;;;11.63;100.00
28448;BME280;15675;52.870;-1.416;2023-05-24T02:28:18;102066.72;;;11.82;100.00
28448;BME280;15675;52.870;-1.416;2023-05-24T02:30:44;102069.34;;;11.84;100.00
28448;BME280;15675;52.870;-1.416;2023-05-24T02:33:10;102062.38;;;11.83;100.00
28448;BME280;15675;52.870;-1.416;2023-05-24T02:35:36;102058.75;;;11.73;100.00
28448;BME280;15675;52.870;-1.416;2023-05-24T02:38:02;102065.28;;;11.97;100.00
28448;BME280;15675;52.870;-1.416;2023-05-24T02:40:31;102057.88;;;11.74;100.00
28448;BME280;15675;52.870;-1.416;2023-05-24T02:42:57;102061.56;;;11.85;100.00
28448;BME280;15675;52.870;-1.416;2023-05-24T02:45:23;102061.84;;;11.98;100.00
28448;BME280;15675;52.870;-1.416;2023-05-24T02:47:48;102064.81;;;12.18;100.00
28448;BME280;15675;52.870;-1.416;2023-05-24T02:50:15;102061.41;;;11.76;100.00
28448;BME280;15675;52.870;-1.416;2023-05-24T02:52:41;102061.06;;;11.61;100.00
28448;BME280;15675;52.870;-1.416;2023-05-24T02:55:07;102065.53;;;11.66;100.00
28448;BME280;15675;52.870;-1.416;2023-05-24T02:57:33;102064.09;;;11.82;100.00
28448;BME280;15675;52.870;-1.416;2023-05-24T02:59:59;102056.88;;;11.67;100.00
28448;BME280;15675;52.870;-1.416;2023-05-24T03:02:25;102057.97;;;11.79;100.00
28448;BME280;15675;52.870;-1.416;2023-05-24T03:04:53;102054.28;;;11.67;100.00
28448;BME280;15675;52.870;-1.416;2023-05-24T03:07:18;102054.16;;;11.61;100.00
28448;BME280;15675;52.870;-1.416;2023-05-24T03:09:44;102051.13;;;11.41;100.00
28448;BME280;15675;52.870;-1.416;2023-05-24T03:12:11;102050.25;;;11.40;100.00
28448;BME280;15675;52.870;-1.416;2023-05-24T03:14:38;102050.03;;;11.31;100.00
28448;BME280;15675;52.870;-1.416;2023-05-24T03:17:04;102040.44;;;11.27;100.00
28448;BME280;15675;52.870;-1.416;2023-05-24T03:19:30;102042.91;;;11.21;100.00
28448;BME280;15675;52.870;-1.416;2023-05-24T03:21:56;102046.34;;;11.20;100.00
28448;BME280;15675;52.870;-1.416;2023-05-24T03:24:22;102040.44;;;11.27;100.00
28448;BME280;15675;52.870;-1.416;2023-05-24T03:26:47;102039.88;;;11.40;100.00
28448;BME280;15675;52.870;-1.416;2023-05-24T03:29:14;102035.81;;;11.55;100.00
28448;BME280;15675;52.870;-1.416;2023-05-24T03:31:40;102026.13;;;11.46;100.00
28448;BME280;15675;52.870;-1.416;2023-05-24T03:34:06;102030.88;;;11.25;100.00
28448;BME280;15675;52.870;-1.416;2023-05-24T03:36:31;102028.91;;;11.16;100.00
28448;BME280;15675;52.870;-1.416;2023-05-24T03:38:57;102021.00;;;11.10;100.00
28448;BME280;15675;52.870;-1.416;2023-05-24T03:41:23;102030.13;;;10.92;100.00
28448;BME280;15675;52.870;-1.416;2023-05-24T03:43:51;102034.59;;;10.98;100.00
28448;BME280;15675;52.870;-1.416;2023-05-24T03:46:17;102034.38;;;10.88;100.00
28448;BME280;15675;52.870;-1.416;2023-05-24T03:48:43;102039.47;;;10.84;100.00
28448;BME280;15675;52.870;-1.416;2023-05-24T03:51:09;102042.47;;;11.01;100.00
28448;BME280;15675;52.870;-1.416;2023-05-24T03:53:35;102044.19;;;11.00;100.00
28448;BME280;15675;52.870;-1.416;2023-05-24T03:56:00;102049.03;;;10.85;100.00
28448;BME280;15675;52.870;-1.416;2023-05-24T03:58:26;102047.66;;;11.01;100.00
28448;BME280;15675;52.870;-1.416;2023-05-24T04:00:52;102052.88;;;11.02;100.00
28448;BME280;15675;52.870;-1.416;2023-05-24T04:03:18;102048.84;;;11.15;100.00
28448;BME280;15675;52.870;-1.416;2023-05-24T04:05:45;102034.31;;;11.25;100.00
28448;BME280;15675;52.870;-1.416;2023-05-24T04:08:11;102036.66;;;11.13;100.00
28448;BME280;15675;52.870;-1.416;2023-05-24T04:10:37;102035.22;;;11.27;100.00
28448;BME280;15675;52.870;-1.416;2023-05-24T04:13:03;102027.88;;;11.47;100.00
28448;BME280;15675;52.870;-1.416;2023-05-24T04:15:29;102034.34;;;11.27;100.00
28448;BME280;15675;52.870;-1.416;2023-05-24T04:17:55;102037.78;;;11.26;100.00
28448;BME280;15675;52.870;-1.416;2023-05-24T04:20:22;102034.81;;;11.09;100.00
28448;BME280;15675;52.870;-1.416;2023-05-24T04:22:50;102038.56;;;10.82;100.00
28448;BME280;15675;52.870;-1.416;2023-05-24T04:25:16;102037.38;;;10.67;100.00
28448;BME280;15675;52.870;-1.416;2023-05-24T04:27:42;102026.81;;;10.98;100.00
28448;BME280;15675;52.870;-1.416;2023-05-24T04:30:10;102035.41;;;10.95;100.00
28448;BME280;15675;52.870;-1.416;2023-05-24T04:32:36;102032.06;;;11.01;100.00
28448;BME280;15675;52.870;-1.416;2023-05-24T04:35:02;102039.09;;;11.05;100.00
28448;BME280;15675;52.870;-1.416;2023-05-24T04:37:28;102029.63;;;11.09;100.00
28448;BME280;15675;52.870;-1.416;2023-05-24T04:39:56;102028.59;;;11.00;100.00
28448;BME280;15675;52.870;-1.416;2023-05-24T04:42:23;102043.56;;;11.12;100.00
28448;BME280;15675;52.870;-1.416;2023-05-24T04:44:49;102037.34;;;11.05;100.00
28448;BME280;15675;52.870;-1.416;2023-05-24T04:47:15;102036.59;;;11.10;100.00
28448;BME280;15675;52.870;-1.416;2023-05-24T04:49:41;102034.25;;;11.20;100.00
28448;BME280;15675;52.870;-1.416;2023-05-24T04:52:07;102049.28;;;11.35;100.00
28448;BME280;15675;52.870;-1.416;2023-05-24T04:54:33;102054.63;;;11.42;100.00
28448;BME280;15675;52.870;-1.416;2023-05-24T04:56:59;102054.13;;;11.20;100.00
28448;BME280;15675;52.870;-1.416;2023-05-24T04:59:25;102053.38;;;11.65;100.00
28448;BME280;15675;52.870;-1.416;2023-05-24T05:01:51;102056.97;;;11.72;100.00
28448;BME280;15675;52.870;-1.416;2023-05-24T05:04:17;102049.81;;;11.60;100.00
28448;BME280;15675;52.870;-1.416;2023-05-24T05:06:43;102053.69;;;11.81;100.00
28448;BME280;15675;52.870;-1.416;2023-05-24T05:09:09;102052.72;;;11.77;100.00
28448;BME280;15675;52.870;-1.416;2023-05-24T05:11:38;102059.72;;;11.80;100.00
28448;BME280;15675;52.870;-1.416;2023-05-24T05:14:05;102055.06;;;12.06;100.00
28448;BME280;15675;52.870;-1.416;2023-05-24T05:16:34;102055.25;;;12.17;100.00
28448;BME280;15675;52.870;-1.416;2023-05-24T05:19:01;102053.38;;;12.09;100.00
28448;BME280;15675;52.870;-1.416;2023-05-24T05:21:29;102052.78;;;12.23;100.00
28448;BME280;15675;52.870;-1.416;2023-05-24T05:23:59;102063.66;;;12.02;100.00
28448;BME280;15675;52.870;-1.416;2023-05-24T05:26:26;102061.47;;;12.25;100.00
28448;BME280;15675;52.870;-1.416;2023-05-24T05:28:52;102062.09;;;12.10;100.00
28448;BME280;15675;52.870;-1.416;2023-05-24T05:31:20;102051.69;;;12.62;100.00
28448;BME280;15675;52.870;-1.416;2023-05-24T05:33:46;102052.84;;;12.81;100.00
28448;BME280;15675;52.870;-1.416;2023-05-24T05:36:12;102051.34;;;12.94;100.00
28448;BME280;15675;52.870;-1.416;2023-05-24T05:38:38;102052.81;;;12.26;100.00
28448;BME280;15675;52.870;-1.416;2023-05-24T05:41:04;102051.25;;;12.34;100.00
28448;BME280;15675;52.870;-1.416;2023-05-24T05:43:30;102051.38;;;12.43;100.00
28448;BME280;15675;52.870;-1.416;2023-05-24T05:45:56;102063.03;;;12.64;100.00
28448;BME280;15675;52.870;-1.416;2023-05-24T05:48:22;102058.94;;;12.82;100.00
28448;BME280;15675;52.870;-1.416;2023-05-24T05:50:48;102064.91;;;13.31;100.00
28448;BME280;15675;52.870;-1.416;2023-05-24T05:53:15;102065.00;;;12.79;100.00
28448;BME280;15675;52.870;-1.416;2023-05-24T05:55:41;102060.97;;;12.46;100.00
28448;BME280;15675;52.870;-1.416;2023-05-24T05:58:07;102068.69;;;12.95;100.00
28448;BME280;15675;52.870;-1.416;2023-05-24T06:00:33;102065.75;;;12.73;100.00
28448;BME280;15675;52.870;-1.416;2023-05-24T06:02:59;102062.31;;;12.74;100.00
28448;BME280;15675;52.870;-1.416;2023-05-24T06:05:25;102068.91;;;13.09;100.00
28448;BME280;15675;52.870;-1.416;2023-05-24T06:07:50;102086.13;;;12.98;100.00
28448;BME280;15675;52.870;-1.416;2023-05-24T06:10:17;102084.34;;;12.97;100.00
28448;BME280;15675;52.870;-1.416;2023-05-24T06:12:43;102076.22;;;13.33;100.00
28448;BME280;15675;52.870;-1.416;2023-05-24T06:15:09;102076.56;;;13.58;100.00
28448;BME280;15675;52.870;-1.416;2023-05-24T06:17:36;102074.59;;;13.38;100.00
28448;BME280;15675;52.870;-1.416;2023-05-24T06:20:03;102082.97;;;13.19;100.00
28448;BME280;15675;52.870;-1.416;2023-05-24T06:22:32;102063.56;;;13.00;100.00
28448;BME280;15675;52.870;-1.416;2023-05-24T06:25:01;102069.16;;;13.26;100.00
28448;BME280;15675;52.870;-1.416;2023-05-24T06:27:27;102065.31;;;13.62;100.00
28448;BME280;15675;52.870;-1.416;2023-05-24T06:29:53;102073.94;;;13.58;100.00
28448;BME280;15675;52.870;-1.416;2023-05-24T06:32:19;102080.88;;;13.54;100.00
28448;BME280;15675;52.870;-1.416;2023-05-24T06:34:45;102067.13;;;13.69;100.00
28448;BME280;15675;52.870;-1.416;2023-05-24T06:37:11;102071.28;;;13.53;100.00
28448;BME280;15675;52.870;-1.416;2023-05-24T06:39:40;102059.31;;;13.69;100.00
28448;BME280;15675;52.870;-1.416;2023-05-24T06:42:06;102072.75;;;14.05;100.00
28448;BME280;15675;52.870;-1.416;2023-05-24T06:44:32;102066.13;;;14.41;100.00
28448;BME280;15675;52.870;-1.416;2023-05-24T06:46:59;102073.91;;;14.33;100.00
28448;BME280;15675;52.870;-1.416;2023-05-24T06:49:26;102073.09;;;14.40;100.00
28448;BME280;15675;52.870;-1.416;2023-05-24T06:51:52;102078.56;;;14.63;100.00
28448;BME280;15675;52.870;-1.416;2023-05-24T06:54:18;102076.28;;;14.07;100.00
28448;BME280;15675;52.870;-1.416;2023-05-24T06:56:44;102069.38;;;14.15;100.00
28448;BME280;15675;52.870;-1.416;2023-05-24T06:59:10;102065.16;;;14.28;100.00
28448;BME280;15675;52.870;-1.416;2023-05-24T07:01:36;102057.38;;;14.31;100.00
28448;BME280;15675;52.870;-1.416;2023-05-24T07:04:05;102067.81;;;14.29;99.53
28448;BME280;15675;52.870;-1.416;2023-05-24T07:06:31;102079.94;;;14.24;99.01
28448;BME280;15675;52.870;-1.416;2023-05-24T07:08:58;102070.28;;;14.19;98.10
28448;BME280;15675;52.870;-1.416;2023-05-24T07:11:24;102084.34;;;14.30;98.49
28448;BME280;15675;52.870;-1.416;2023-05-24T07:13:50;102082.56;;;14.26;96.71
28448;BME280;15675;52.870;-1.416;2023-05-24T07:16:16;102079.47;;;14.65;97.65
28448;BME280;15675;52.870;-1.416;2023-05-24T07:18:41;102084.53;;;14.53;94.10
28448;BME280;15675;52.870;-1.416;2023-05-24T07:21:07;102094.03;;;14.43;92.85
28448;BME280;15675;52.870;-1.416;2023-05-24T07:23:33;102087.31;;;14.69;95.75
28448;BME280;15675;52.870;-1.416;2023-05-24T07:25:59;102100.16;;;14.47;93.04
28448;BME280;15675;52.870;-1.416;2023-05-24T07:28:25;102086.38;;;14.62;93.57
28448;BME280;15675;52.870;-1.416;2023-05-24T07:30:52;102086.25;;;14.49;91.64
28448;BME280;15675;52.870;-1.416;2023-05-24T07:33:18;102086.47;;;14.70;92.26
28448;BME280;15675;52.870;-1.416;2023-05-24T07:35:44;102090.91;;;14.81;90.16
28448;BME280;15675;52.870;-1.416;2023-05-24T07:38:16;102082.06;;;14.65;91.23
28448;BME280;15675;52.870;-1.416;2023-05-24T07:40:42;102081.38;;;14.87;89.25
28448;BME280;15675;52.870;-1.416;2023-05-24T07:43:08;102089.28;;;14.96;89.30
28448;BME280;15675;52.870;-1.416;2023-05-24T07:45:34;102085.75;;;14.91;87.08
28448;BME280;15675;52.870;-1.416;2023-05-24T07:48:00;102088.34;;;14.89;86.06
28448;BME280;15675;52.870;-1.416;2023-05-24T07:50:26;102091.34;;;15.52;86.48
28448;BME280;15675;52.870;-1.416;2023-05-24T07:52:55;102093.31;;;16.00;85.08
28448;BME280;15675;52.870;-1.416;2023-05-24T07:55:21;102089.66;;;15.64;81.56
28448;BME280;15675;52.870;-1.416;2023-05-24T07:57:47;102078.09;;;15.22;82.09
28448;BME280;15675;52.870;-1.416;2023-05-24T08:00:13;102077.63;;;16.25;81.63
28448;BME280;15675;52.870;-1.416;2023-05-24T08:02:41;102081.94;;;15.92;76.85
28448;BME280;15675;52.870;-1.416;2023-05-24T08:05:11;102076.69;;;15.87;77.18
28448;BME280;15675;52.870;-1.416;2023-05-24T08:07:37;102079.09;;;15.42;78.06
28448;BME280;15675;52.870;-1.416;2023-05-24T08:10:03;102074.13;;;16.01;75.51
28448;BME280;15675;52.870;-1.416;2023-05-24T08:12:29;102084.59;;;15.95;79.49
28448;BME280;15675;52.870;-1.416;2023-05-24T08:14:55;102081.06;;;15.83;77.48
28448;BME280;15675;52.870;-1.416;2023-05-24T08:17:22;102078.50;;;16.02;75.40
28448;BME280;15675;52.870;-1.416;2023-05-24T08:19:47;102073.25;;;16.07;72.37
28448;BME280;15675;52.870;-1.416;2023-05-24T08:22:13;102076.78;;;16.13;72.11
28448;BME280;15675;52.870;-1.416;2023-05-24T08:24:40;102070.63;;;16.07;69.88
28448;BME280;15675;52.870;-1.416;2023-05-24T08:27:06;102083.59;;;15.69;71.40
28448;BME280;15675;52.870;-1.416;2023-05-24T08:29:34;102077.66;;;16.26;69.90
28448;BME280;15675;52.870;-1.416;2023-05-24T08:32:00;102079.38;;;16.27;68.60
28448;BME280;15675;52.870;-1.416;2023-05-24T08:34:27;102078.44;;;15.82;68.71
28448;BME280;15675;52.870;-1.416;2023-05-24T08:36:53;102069.81;;;16.52;68.07
28448;BME280;15675;52.870;-1.416;2023-05-24T08:39:19;102084.66;;;16.35;67.29
28448;BME280;15675;52.870;-1.416;2023-05-24T08:41:45;102091.59;;;16.03;68.08
28448;BME280;15675;52.870;-1.416;2023-05-24T08:44:12;102075.88;;;16.14;68.40
28448;BME280;15675;52.870;-1.416;2023-05-24T08:46:38;102085.53;;;16.71;68.90
28448;BME280;15675;52.870;-1.416;2023-05-24T08:49:04;102082.91;;;16.97;69.07
28448;BME280;15675;52.870;-1.416;2023-05-24T08:51:32;102087.31;;;16.95;68.58
28448;BME280;15675;52.870;-1.416;2023-05-24T08:53:59;102094.28;;;16.61;69.63
28448;BME280;15675;52.870;-1.416;2023-05-24T08:56:25;102089.88;;;16.84;70.53
28448;BME280;15675;52.870;-1.416;2023-05-24T08:58:53;102091.66;;;16.56;65.97
28448;BME280;15675;52.870;-1.416;2023-05-24T09:01:19;102100.38;;;16.49;64.05
28448;BME280;15675;52.870;-1.416;2023-05-24T09:03:46;102086.41;;;17.04;62.92
28448;BME280;15675;52.870;-1.416;2023-05-24T09:06:15;102082.00;;;17.20;62.80
28448;BME280;15675;52.870;-1.416;2023-05-24T09:08:41;102072.38;;;17.25;62.82
28448;BME280;15675;52.870;-1.416;2023-05-24T09:11:08;102081.16;;;16.85;62.47
28448;BME280;15675;52.870;-1.416;2023-05-24T09:13:34;102075.94;;;16.79;63.83
28448;BME280;15675;52.870;-1.416;2023-05-24T09:16:01;102073.28;;;17.05;65.11
28448;BME280;15675;52.870;-1.416;2023-05-24T09:18:27;102063.56;;;17.46;64.17
28448;BME280;15675;52.870;-1.416;2023-05-24T09:20:54;102066.13;;;17.65;64.32
28448;BME280;15675;52.870;-1.416;2023-05-24T09:23:20;102075.06;;;16.69;64.39
28448;BME280;15675;52.870;-1.416;2023-05-24T09:25:47;102082.03;;;16.84;66.35
28448;BME280;15675;52.870;-1.416;2023-05-24T09:28:15;102077.56;;;17.42;63.13
28448;BME280;15675;52.870;-1.416;2023-05-24T09:30:43;102075.91;;;17.15;62.84
28448;BME280;15675;52.870;-1.416;2023-05-24T09:33:09;102068.91;;;16.81;64.67
28448;BME280;15675;52.870;-1.416;2023-05-24T09:35:36;102060.19;;;17.12;66.03
28448;BME280;15675;52.870;-1.416;2023-05-24T09:38:02;102068.84;;;17.37;62.59
28448;BME280;15675;52.870;-1.416;2023-05-24T09:40:28;102054.06;;;17.17;62.73
28448;BME280;15675;52.870;-1.416;2023-05-24T09:43:04;102061.00;;;17.20;64.13
28448;BME280;15675;52.870;-1.416;2023-05-24T09:45:41;102056.72;;;16.89;60.65
28448;BME280;15675;52.870;-1.416;2023-05-24T09:48:10;102066.19;;;17.48;62.73
28448;BME280;15675;52.870;-1.416;2023-05-24T09:50:37;102063.69;;;17.09;57.98
28448;BME280;15675;52.870;-1.416;2023-05-24T09:53:02;102058.28;;;17.60;58.88
28448;BME280;15675;52.870;-1.416;2023-05-24T09:55:29;102042.34;;;17.88;56.26
28448;BME280;15675;52.870;-1.416;2023-05-24T09:58:11;102042.25;;;18.08;55.32
28448;BME280;15675;52.870;-1.416;2023-05-24T10:00:39;102040.25;;;18.42;54.60
28448;BME280;15675;52.870;-1.416;2023-05-24T10:03:07;102039.56;;;18.19;55.72
28448;BME280;15675;52.870;-1.416;2023-05-24T10:05:34;102033.84;;;17.36;56.75
28448;BME280;15675;52.870;-1.416;2023-05-24T10:08:01;102045.13;;;17.63;58.01
28448;BME280;15675;52.870;-1.416;2023-05-24T10:10:31;102033.41;;;18.23;57.82
28448;BME280;15675;52.870;-1.416;2023-05-24T10:12:58;102036.84;;;18.28;57.55
28448;BME280;15675;52.870;-1.416;2023-05-24T10:15:25;102055.53;;;17.83;58.54
28448;BME280;15675;52.870;-1.416;2023-05-24T10:17:54;102043.13;;;18.13;60.62
28448;BME280;15675;52.870;-1.416;2023-05-24T10:20:20;102026.09;;;18.60;55.59
28448;BME280;15675;52.870;-1.416;2023-05-24T10:22:54;102025.97;;;18.74;56.41
28448;BME280;15675;52.870;-1.416;2023-05-24T10:25:26;102037.78;;;18.22;57.36
28448;BME280;15675;52.870;-1.416;2023-05-24T10:28:03;102048.53;;;17.81;56.98
28448;BME280;15675;52.870;-1.416;2023-05-24T10:30:36;102037.97;;;17.87;56.53
28448;BME280;15675;52.870;-1.416;2023-05-24T10:33:07;102032.34;;;18.47;56.77
28448;BME280;15675;52.870;-1.416;2023-05-24T10:35:36;102037.84;;;18.16;55.59
28448;BME280;15675;52.870;-1.416;2023-05-24T10:38:05;102027.66;;;18.78;57.03
28448;BME280;15675;52.870;-1.416;2023-05-24T10:40:32;102027.22;;;19.23;54.48
28448;BME280;15675;52.870;-1.416;2023-05-24T10:42:58;102030.59;;;18.44;53.30
28448;BME280;15675;52.870;-1.416;2023-05-24T10:45:30;102033.25;;;18.43;54.46
28448;BME280;15675;52.870;-1.416;2023-05-24T10:48:30;102032.28;;;18.52;54.73
28448;BME280;15675;52.870;-1.416;2023-05-24T10:50:46;102022.44;;;18.77;54.58
28448;BME280;15675;52.870;-1.416;2023-05-24T10:53:21;102024.56;;;19.23;53.29
28448;BME280;15675;52.870;-1.416;2023-05-24T10:55:59;102021.66;;;18.67;53.55
28448;BME280;15675;52.870;-1.416;2023-05-24T10:58:43;102024.94;;;18.91;53.34
28448;BME280;15675;52.870;-1.416;2023-05-24T11:01:28;102033.72;;;18.85;53.93
28448;BME280;15675;52.870;-1.416;2023-05-24T11:04:14;102027.94;;;18.49;56.93
28448;BME280;15675;52.870;-1.416;2023-05-24T11:06:55;102021.56;;;18.73;59.00
28448;BME280;15675;52.870;-1.416;2023-05-24T11:09:21;102025.72;;;19.01;57.20
28448;BME280;15675;52.870;-1.416;2023-05-24T11:11:49;102025.97;;;18.70;55.45
28448;BME280;15675;52.870;-1.416;2023-05-24T11:14:21;102012.72;;;18.80;53.63
28448;BME280;15675;52.870;-1.416;2023-05-24T11:16:48;102014.50;;;18.80;54.22
28448;BME280;15675;52.870;-1.416;2023-05-24T11:19:17;102007.66;;;18.62;52.26
28448;BME280;15675;52.870;-1.416;2023-05-24T11:21:44;102019.84;;;18.69;54.02
28448;BME280;15675;52.870;-1.416;2023-05-24T11:24:11;102030.44;;;18.63;54.27
28448;BME280;15675;52.870;-1.416;2023-05-24T11:26:38;102030.16;;;18.95;54.50
28448;BME280;15675;52.870;-1.416;2023-05-24T11:29:06;102026.44;;;19.13;54.04
28448;BME280;15675;52.870;-1.416;2023-05-24T11:31:32;102021.94;;;19.23;53.57
28448;BME280;15675;52.870;-1.416;2023-05-24T11:33:59;102028.97;;;19.24;54.43
28448;BME280;15675;52.870;-1.416;2023-05-24T11:36:26;102020.31;;;19.13;53.14
28448;BME280;15675;52.870;-1.416;2023-05-24T11:38:53;102021.22;;;19.10;53.89
28448;BME280;15675;52.870;-1.416;2023-05-24T11:41:19;102007.22;;;19.07;54.10
28448;BME280;15675;52.870;-1.416;2023-05-24T11:43:46;102019.50;;;19.76;52.08
28448;BME280;15675;52.870;-1.416;2023-05-24T11:46:12;102005.59;;;19.65;52.17
28448;BME280;15675;52.870;-1.416;2023-05-24T11:48:38;102009.06;;;19.69;51.47
28448;BME280;15675;52.870;-1.416;2023-05-24T11:51:04;101990.03;;;20.10;50.35
28448;BME280;15675;52.870;-1.416;2023-05-24T11:53:30;102004.63;;;19.72;51.04
28448;BME280;15675;52.870;-1.416;2023-05-24T11:55:56;102007.72;;;19.37;49.18
28448;BME280;15675;52.870;-1.416;2023-05-24T11:58:26;101999.13;;;19.25;46.35
28448;BME280;15675;52.870;-1.416;2023-05-24T12:00:54;101997.25;;;19.97;48.19
28448;BME280;15675;52.870;-1.416;2023-05-24T12:03:20;101999.38;;;19.71;45.99
28448;BME280;15675;52.870;-1.416;2023-05-24T12:05:46;102006.44;;;19.69;44.75
28448;BME280;15675;52.870;-1.416;2023-05-24T12:08:12;102001.84;;;19.85;46.73
28448;BME280;15675;52.870;-1.416;2023-05-24T12:10:41;102002.38;;;20.08;47.00
28448;BME280;15675;52.870;-1.416;2023-05-24T12:13:24;101996.16;;;20.14;46.26
28448;BME280;15675;52.870;-1.416;2023-05-24T12:15:52;101999.97;;;20.47;47.18
28448;BME280;15675;52.870;-1.416;2023-05-24T12:18:20;102000.00;;;19.91;48.50
28448;BME280;15675;52.870;-1.416;2023-05-24T12:20:47;102008.31;;;20.21;50.12
28448;BME280;15675;52.870;-1.416;2023-05-24T12:23:14;101997.88;;;20.13;50.50
28448;BME280;15675;52.870;-1.416;2023-05-24T12:25:40;102004.59;;;20.33;50.46
28448;BME280;15675;52.870;-1.416;2023-05-24T12:28:06;101999.94;;;20.97;50.52
28448;BME280;15675;52.870;-1.416;2023-05-24T12:30:31;102001.13;;;20.29;51.08
28448;BME280;15675;52.870;-1.416;2023-05-24T12:32:57;102003.84;;;20.25;51.07
28448;BME280;15675;52.870;-1.416;2023-05-24T12:35:23;102011.31;;;19.99;50.35
28448;BME280;15675;52.870;-1.416;2023-05-24T12:37:56;101998.16;;;20.51;49.77
28448;BME280;15675;52.870;-1.416;2023-05-24T12:40:22;101990.44;;;20.39;47.47